Time;durP1;ratioP1;P1;durP2;ratioP2;P2;SDS_P1;SDS_P2;PMS_P1;PMS_P2;Temp;Humidity;BMP_temperature;BMP_pressure;BME280_temperature;BME280_humidity;BME280_pressure;Samples;Min_cycle;Max_cycle;Signal;HPM_P1;HPM_P2
2022/07/02 00:01:51;;;;;;;3.57;2.53;;;15.10;99.90;;;;;;5031284;28;20189;-37
2022/07/02 00:04:25;;;;;;;4.70;2.90;;;15.20;99.90;;;;;;5029915;28;20197;-37
2022/07/02 00:06:51;;;;;;;8.37;2.90;;;15.20;99.90;;;;;;5028963;28;20190;-37
2022/07/02 00:09:18;;;;;;;2.93;2.60;;;15.00;99.90;;;;;;5029549;28;20486;-37
2022/07/02 00:11:47;;;;;;;3.53;2.80;;;14.70;99.90;;;;;;5031054;28;20591;-37
2022/07/02 00:14:15;;;;;;;3.37;3.07;;;14.50;99.90;;;;;;5030738;28;20437;-37
2022/07/02 00:16:45;;;;;;;4.47;2.93;;;14.40;99.90;;;;;;5029019;28;20413;-37
2022/07/02 00:19:13;;;;;;;2.70;2.50;;;14.30;99.90;;;;;;5030751;28;20413;-37
2022/07/02 00:21:39;;;;;;;5.43;2.97;;;14.20;99.90;;;;;;5034013;28;20417;-37
2022/07/02 00:24:09;;;;;;;3.23;2.60;;;14.20;99.90;;;;;;5030657;28;20428;-37
2022/07/02 00:26:39;;;;;;;4.73;3.10;;;14.10;99.90;;;;;;5029706;28;20432;-37
2022/07/02 00:29:16;;;;;;;3.30;3.00;;;14.10;99.90;;;;;;5030595;28;20474;-37
2022/07/02 00:31:43;;;;;;;3.83;2.93;;;14.00;99.90;;;;;;5030584;28;20424;-37
2022/07/02 00:34:09;;;;;;;3.00;2.80;;;14.00;99.90;;;;;;5028825;28;20469;-37
2022/07/02 00:36:37;;;;;;;4.80;2.80;;;14.00;99.90;;;;;;5030041;28;20429;-36
2022/07/02 00:39:02;;;;;;;6.97;3.23;;;14.00;99.90;;;;;;5030239;28;20445;-37
2022/07/02 00:41:29;;;;;;;5.43;3.10;;;14.00;99.90;;;;;;5030531;28;20421;-37
2022/07/02 00:43:55;;;;;;;3.30;2.80;;;14.00;99.90;;;;;;5030401;28;20186;-37
2022/07/02 00:46:22;;;;;;;3.70;3.00;;;14.00;99.90;;;;;;5030158;28;20432;-37
2022/07/02 00:48:48;;;;;;;3.77;3.20;;;14.00;99.90;;;;;;5028285;28;20940;-37
2022/07/02 00:51:14;;;;;;;2.83;2.40;;;14.10;99.90;;;;;;5029596;28;20429;-37
2022/07/02 00:53:40;;;;;;;4.10;2.83;;;14.30;99.90;;;;;;5030400;28;20811;-37
2022/07/02 00:56:05;;;;;;;3.50;2.93;;;14.50;99.90;;;;;;5030269;28;21059;-37
2022/07/02 00:58:32;;;;;;;3.03;2.83;;;14.50;99.90;;;;;;5029453;28;20237;-37
2022/07/02 01:00:59;;;;;;;4.03;2.73;;;14.40;99.90;;;;;;5030155;28;20665;-37
2022/07/02 01:03:26;;;;;;;3.10;2.40;;;14.40;99.90;;;;;;5030248;28;20437;-38
2022/07/02 01:05:53;;;;;;;4.13;3.00;;;14.30;99.90;;;;;;5030210;28;20456;-37
2022/07/02 01:11:08;;;;;;;3.13;2.83;;;14.10;99.90;;;;;;5030136;28;20432;-37
2022/07/02 01:13:34;;;;;;;3.43;2.83;;;14.20;99.90;;;;;;5029585;28;20808;-37
2022/07/02 01:16:00;;;;;;;4.10;2.90;;;14.20;99.90;;;;;;5030090;28;20421;-37
2022/07/02 01:18:26;;;;;;;3.20;2.83;;;14.30;99.90;;;;;;5028462;28;20429;-37
2022/07/02 01:20:52;;;;;;;6.37;2.60;;;14.30;99.90;;;;;;5030150;28;20432;-37
2022/07/02 01:23:18;;;;;;;4.10;3.13;;;14.40;99.90;;;;;;5030795;28;20307;-37
2022/07/02 01:25:53;;;;;;;4.37;2.60;;;14.50;99.90;;;;;;5030071;28;20193;-36
2022/07/02 01:28:20;;;;;;;3.93;2.97;;;14.60;99.90;;;;;;5028464;28;20190;-37
2022/07/02 01:30:47;;;;;;;3.60;2.97;;;14.60;99.90;;;;;;5029855;28;20425;-37
2022/07/02 01:33:13;;;;;;;5.57;3.53;;;14.60;99.90;;;;;;5028528;28;20552;-37
2022/07/02 01:35:39;;;;;;;4.00;3.10;;;14.60;99.90;;;;;;5029423;28;20558;-37
2022/07/02 01:38:05;;;;;;;4.20;3.10;;;14.60;99.90;;;;;;5029108;28;20424;-37
2022/07/02 01:40:31;;;;;;;4.77;2.97;;;14.60;99.90;;;;;;5029599;28;20185;-37
2022/07/02 01:42:56;;;;;;;3.30;2.83;;;14.60;99.90;;;;;;5029144;28;20186;-37
2022/07/02 01:45:22;;;;;;;5.43;3.20;;;14.60;99.90;;;;;;5029525;28;20919;-37
2022/07/02 01:47:48;;;;;;;3.27;2.60;;;14.70;99.90;;;;;;5028929;28;20286;-37
2022/07/02 01:50:14;;;;;;;3.40;3.10;;;14.70;99.90;;;;;;5029541;28;20182;-37
2022/07/02 01:52:39;;;;;;;3.10;2.67;;;14.50;99.90;;;;;;5029689;28;20847;-36
2022/07/02 01:55:05;;;;;;;3.10;2.80;;;14.30;99.90;;;;;;5029360;28;20233;-37
2022/07/02 01:57:35;;;;;;;4.07;2.77;;;14.30;99.90;;;;;;5029165;28;20186;-36
2022/07/02 02:00:07;;;;;;;3.10;2.90;;;14.40;99.90;;;;;;5029249;28;20513;-37
2022/07/02 02:02:33;;;;;;;3.83;2.90;;;14.40;99.90;;;;;;5029517;28;20479;-36
2022/07/02 02:04:59;;;;;;;3.30;2.60;;;14.50;99.90;;;;;;5029488;28;20437;-37
2022/07/02 02:07:25;;;;;;;3.77;2.90;;;14.50;99.90;;;;;;5028900;28;20192;-37
2022/07/02 02:09:50;;;;;;;4.53;3.03;;;14.50;99.90;;;;;;5029231;28;20421;-36
2022/07/02 02:12:16;;;;;;;3.33;3.03;;;14.50;99.90;;;;;;5028188;28;20476;-36
2022/07/02 02:14:42;;;;;;;4.40;3.60;;;14.60;99.90;;;;;;5029329;28;20191;-36
2022/07/02 02:17:07;;;;;;;5.50;2.87;;;14.60;99.90;;;;;;5028777;28;20205;-37
2022/07/02 02:19:33;;;;;;;3.40;3.10;;;14.70;99.90;;;;;;5029348;28;20190;-37
2022/07/02 02:21:59;;;;;;;3.47;2.80;;;14.80;99.90;;;;;;5031572;28;20189;-36
2022/07/02 02:24:25;;;;;;;3.57;3.00;;;14.80;99.90;;;;;;5027671;28;20935;-37
2022/07/02 02:26:50;;;;;;;10.87;3.00;;;14.80;99.90;;;;;;5028817;28;20556;-37
2022/07/02 02:29:16;;;;;;;4.83;3.40;;;14.70;99.90;;;;;;5028969;28;20194;-37
2022/07/02 02:31:42;;;;;;;3.50;2.80;;;14.70;99.90;;;;;;5035752;28;20205;-37
2022/07/02 02:34:08;;;;;;;3.47;3.17;;;14.70;99.90;;;;;;5034806;28;20548;-37
2022/07/02 02:36:33;;;;;;;5.50;3.20;;;14.60;99.90;;;;;;5023665;28;20175;-37
2022/07/02 02:38:59;;;;;;;4.20;3.60;;;14.70;99.90;;;;;;5024958;28;20190;-37
2022/07/02 02:41:25;;;;;;;4.80;3.23;;;14.70;99.90;;;;;;5032660;28;20195;-37
2022/07/02 02:43:51;;;;;;;4.70;3.53;;;14.70;99.90;;;;;;5032482;28;20265;-37
2022/07/02 02:46:17;;;;;;;3.27;3.00;;;14.70;99.90;;;;;;5032661;28;20433;-37
2022/07/02 02:48:42;;;;;;;4.87;3.50;;;14.40;99.90;;;;;;5031703;28;20191;-37
2022/07/02 02:51:13;;;;;;;4.00;3.60;;;14.30;99.90;;;;;;5032435;28;20556;-37
2022/07/02 02:53:42;;;;;;;3.70;3.17;;;14.30;99.90;;;;;;5032397;28;20213;-37
2022/07/02 02:56:08;;;;;;;7.60;3.83;;;14.40;99.90;;;;;;5031846;28;20448;-37
2022/07/02 02:58:34;;;;;;;4.20;3.40;;;14.40;99.90;;;;;;5027131;28;20453;-37
2022/07/02 03:01:00;;;;;;;4.70;3.40;;;14.60;99.90;;;;;;5032252;28;20997;-37
2022/07/02 03:03:26;;;;;;;4.03;3.50;;;14.70;99.90;;;;;;5031632;28;20191;-37
2022/07/02 03:05:52;;;;;;;4.23;3.30;;;14.70;99.90;;;;;;5032160;28;20428;-37
2022/07/02 03:08:18;;;;;;;6.30;3.50;;;14.70;99.90;;;;;;5031375;28;20189;-37
2022/07/02 03:10:44;;;;;;;3.40;3.10;;;14.70;99.90;;;;;;5032358;28;20187;-36
2022/07/02 03:13:10;;;;;;;6.37;3.00;;;14.60;99.90;;;;;;5031380;28;20479;-36
2022/07/02 03:15:36;;;;;;;4.00;3.17;;;14.50;99.90;;;;;;5032126;28;20639;-37
2022/07/02 03:18:01;;;;;;;4.70;3.30;;;14.30;99.90;;;;;;5031201;28;20515;-37
2022/07/02 03:20:27;;;;;;;4.10;3.23;;;14.20;99.90;;;;;;5032059;28;20202;-37
2022/07/02 03:22:53;;;;;;;4.90;3.17;;;14.00;99.90;;;;;;5033504;28;20284;-37
2022/07/02 03:25:18;;;;;;;3.33;2.83;;;13.80;99.90;;;;;;5032051;28;20194;-37
2022/07/02 03:27:44;;;;;;;3.10;2.90;;;13.70;99.90;;;;;;5031204;28;20191;-36
2022/07/02 03:30:10;;;;;;;3.00;2.70;;;13.60;99.90;;;;;;5031800;28;20669;-36
2022/07/02 03:32:36;;;;;;;3.27;2.97;;;13.40;99.90;;;;;;5030865;28;20301;-37
2022/07/02 03:35:02;;;;;;;4.30;3.10;;;13.30;99.90;;;;;;5030837;28;20859;-37
2022/07/02 03:37:28;;;;;;;3.60;3.27;;;13.30;99.90;;;;;;5030920;28;20193;-37
2022/07/02 03:39:55;;;;;;;4.53;3.07;;;13.20;99.90;;;;;;5031803;28;20197;-37
2022/07/02 03:42:21;;;;;;;4.20;3.80;;;13.20;99.90;;;;;;5031696;28;20429;-37
2022/07/02 03:44:47;;;;;;;5.20;3.47;;;13.20;99.90;;;;;;5031279;28;20779;-37
2022/07/02 03:47:12;;;;;;;3.33;3.10;;;13.10;99.90;;;;;;5030839;28;20487;-36
2022/07/02 03:49:38;;;;;;;4.43;3.60;;;13.10;99.90;;;;;;5031323;28;20290;-37
2022/07/02 03:52:05;;;;;;;3.50;3.10;;;13.10;99.90;;;;;;5030931;28;20190;-36
2022/07/02 03:54:30;;;;;;;6.60;3.27;;;13.00;99.90;;;;;;5030870;28;20190;-37
2022/07/02 03:56:56;;;;;;;3.23;2.93;;;13.00;99.90;;;;;;5029680;28;20479;-37
2022/07/02 03:59:22;;;;;;;4.33;3.17;;;13.10;99.90;;;;;;5031116;28;20206;-37
2022/07/02 04:01:47;;;;;;;4.20;3.27;;;13.30;99.90;;;;;;5031328;28;20190;-37
2022/07/02 04:04:13;;;;;;;3.13;2.83;;;13.40;99.90;;;;;;5031261;28;20190;-37
2022/07/02 04:06:39;;;;;;;4.77;3.30;;;13.60;99.90;;;;;;5030580;28;20190;-37
2022/07/02 04:09:04;;;;;;;4.60;2.90;;;13.70;99.90;;;;;;5031066;28;20191;-36
2022/07/02 04:11:30;;;;;;;4.33;3.20;;;13.90;99.90;;;;;;5031220;28;20182;-37
2022/07/02 04:13:55;;;;;;;6.17;4.20;;;14.00;99.90;;;;;;5030988;28;20221;-36
2022/07/02 04:16:21;;;;;;;3.80;2.90;;;14.20;99.90;;;;;;5030870;28;20298;-36
2022/07/02 04:18:47;;;;;;;4.63;2.60;;;14.30;99.90;;;;;;5030270;28;20206;-37
2022/07/02 04:21:13;;;;;;;3.67;3.20;;;14.40;99.90;;;;;;5024547;28;20185;-37
2022/07/02 04:23:38;;;;;;;3.30;2.97;;;14.40;99.90;;;;;;5024410;28;20266;-37
2022/07/02 04:26:05;;;;;;;4.23;3.27;;;14.40;99.90;;;;;;5030875;28;20421;-37
2022/07/02 04:28:31;;;;;;;6.27;3.17;;;14.50;99.90;;;;;;5030078;28;20190;-37
2022/07/02 04:30:57;;;;;;;3.73;2.87;;;14.50;99.90;;;;;;5029454;28;20835;-36
2022/07/02 04:33:23;;;;;;;3.07;2.77;;;14.60;99.90;;;;;;5029582;28;20556;-36
2022/07/02 04:35:49;;;;;;;4.13;3.30;;;14.60;99.90;;;;;;5030671;28;20190;-37
2022/07/02 04:38:14;;;;;;;3.53;2.90;;;14.70;99.90;;;;;;5029805;28;20425;-37
2022/07/02 04:40:40;;;;;;;4.00;3.17;;;14.70;99.90;;;;;;5030655;28;20198;-37
2022/07/02 04:43:06;;;;;;;4.10;3.00;;;14.80;99.90;;;;;;5024594;28;20191;-37
2022/07/02 04:45:31;;;;;;;5.77;3.50;;;14.90;99.90;;;;;;5030299;28;20251;-37
2022/07/02 04:47:57;;;;;;;3.17;2.87;;;14.90;99.90;;;;;;5029528;28;20264;-37
2022/07/02 04:50:23;;;;;;;3.60;3.27;;;15.00;99.90;;;;;;5030247;28;20265;-36
2022/07/02 04:52:48;;;;;;;2.77;2.47;;;15.10;99.90;;;;;;5030411;28;20210;-37
2022/07/02 04:55:15;;;;;;;5.10;2.80;;;15.20;99.90;;;;;;5030368;28;20190;-37
2022/07/02 04:57:41;;;;;;;4.10;2.73;;;15.30;99.90;;;;;;5029675;28;20668;-36
2022/07/02 05:00:08;;;;;;;3.17;2.87;;;15.30;99.90;;;;;;5030634;28;20523;-37
2022/07/02 05:02:35;;;;;;;3.07;2.77;;;15.50;99.90;;;;;;5034846;28;20409;-36
2022/07/02 05:05:01;;;;;;;3.50;2.47;;;15.60;99.90;;;;;;5029977;28;20425;-37
2022/07/02 05:07:27;;;;;;;3.43;2.80;;;15.70;99.90;;;;;;5029561;28;20459;-36
2022/07/02 05:09:53;;;;;;;4.03;2.83;;;15.80;99.90;;;;;;5029929;28;20469;-37
2022/07/02 05:12:18;;;;;;;6.70;3.10;;;15.90;99.90;;;;;;5029187;28;20562;-37
2022/07/02 05:14:44;;;;;;;3.10;2.40;;;16.00;99.90;;;;;;5020070;28;20778;-37
2022/07/02 05:17:10;;;;;;;4.73;2.80;;;16.10;99.90;;;;;;5022320;28;20186;-37
2022/07/02 05:19:36;;;;;;;5.00;2.50;;;16.30;99.90;;;;;;5029871;28;20190;-37
2022/07/02 05:22:01;;;;;;;2.40;2.20;;;16.40;99.90;;;;;;5026409;28;20179;-37
2022/07/02 05:24:27;;;;;;;3.73;3.00;;;16.40;99.90;;;;;;5026937;28;20186;-37
2022/07/02 05:26:53;;;;;;;3.90;2.70;;;16.50;99.90;;;;;;5029141;28;20178;-37
2022/07/02 05:29:18;;;;;;;5.80;2.60;;;16.60;99.90;;;;;;5033376;28;20554;-37
2022/07/02 05:31:44;;;;;;;3.43;2.83;;;16.70;99.90;;;;;;5029641;28;20228;-37
2022/07/02 05:34:10;;;;;;;3.00;2.47;;;16.80;99.90;;;;;;5028668;28;20650;-37
2022/07/02 05:36:35;;;;;;;3.93;2.53;;;16.90;99.90;;;;;;5024991;28;20183;-37
2022/07/02 05:39:01;;;;;;;2.33;2.13;;;17.00;99.90;;;;;;5029178;28;20209;-37
2022/07/02 05:41:27;;;;;;;3.83;2.40;;;17.20;99.90;;;;;;5029763;28;20803;-37
2022/07/02 05:43:53;;;;;;;7.93;3.00;;;17.20;99.90;;;;;;5029409;28;20284;-37
2022/07/02 05:46:19;;;;;;;2.60;2.23;;;17.30;99.90;;;;;;5028100;28;20450;-37
2022/07/02 05:48:44;;;;;;;3.13;2.83;;;17.50;99.90;;;;;;5028619;28;20186;-37
2022/07/02 05:51:10;;;;;;;4.40;2.60;;;17.60;99.90;;;;;;5029714;28;20225;-37
2022/07/02 05:53:36;;;;;;;3.27;2.70;;;17.80;99.90;;;;;;5014992;28;20879;-37
2022/07/02 05:56:01;;;;;;;5.83;2.30;;;17.90;99.90;;;;;;5029653;28;20228;-37
2022/07/02 05:58:27;;;;;;;4.10;3.30;;;18.00;99.90;;;;;;5027041;28;20185;-37
2022/07/02 06:00:53;;;;;;;6.33;2.23;;;18.20;99.90;;;;;;5029476;28;20222;-37
2022/07/02 06:03:19;;;;;;;3.83;2.53;;;18.30;99.90;;;;;;5029383;28;20191;-37
2022/07/02 06:08:30;;;;;;;3.20;2.57;;;18.50;99.90;;;;;;5027722;28;20544;-37
2022/07/02 06:10:56;;;;;;;2.60;2.40;;;18.70;99.90;;;;;;5024506;28;20436;-37
2022/07/02 06:13:21;;;;;;;2.90;2.60;;;18.80;99.90;;;;;;5027065;28;20479;-37
2022/07/02 06:15:47;;;;;;;2.43;2.20;;;19.00;99.90;;;;;;5029629;28;20190;-37
2022/07/02 06:18:13;;;;;;;6.17;2.10;;;19.10;99.90;;;;;;5030798;28;20226;-38
2022/07/02 06:20:39;;;;;;;2.10;1.80;;;19.30;99.90;;;;;;5033122;28;20190;-37
2022/07/02 06:23:05;;;;;;;2.70;2.10;;;19.40;99.90;;;;;;5035687;28;20733;-37
2022/07/02 06:25:31;;;;;;;2.37;2.03;;;19.40;99.90;;;;;;5033098;28;20818;-37
2022/07/02 06:27:57;;;;;;;3.80;1.97;;;19.50;99.90;;;;;;5032263;28;20433;-37
2022/07/02 06:30:26;;;;;;;3.80;2.30;;;19.60;99.90;;;;;;5032902;28;20186;-37
2022/07/02 06:32:52;;;;;;;3.57;2.40;;;19.60;99.90;;;;;;5032908;28;20214;-37
2022/07/02 06:35:17;;;;;;;2.53;2.20;;;19.70;99.90;;;;;;5031933;28;21073;-37
2022/07/02 06:37:43;;;;;;;3.00;2.10;;;19.80;99.90;;;;;;5032284;28;20429;-37
2022/07/02 06:40:09;;;;;;;3.37;2.23;;;20.00;99.90;;;;;;5031482;28;20225;-37
2022/07/02 06:42:35;;;;;;;2.63;2.43;;;20.10;99.90;;;;;;5031936;28;20190;-37
2022/07/02 06:45:01;;;;;;;3.60;2.20;;;20.30;99.90;;;;;;5032551;28;20436;-37
2022/07/02 06:47:27;;;;;;;7.53;2.17;;;20.50;99.90;;;;;;5032239;28;20920;-37
2022/07/02 06:49:55;;;;;;;3.50;2.03;;;20.70;99.90;;;;;;5032616;28;20802;-37
2022/07/02 06:52:21;;;;;;;6.47;2.30;;;20.80;99.90;;;;;;5032415;28;20461;-37
2022/07/02 06:54:47;;;;;;;3.93;2.20;;;20.90;99.90;;;;;;5032636;28;20769;-38
2022/07/02 06:57:12;;;;;;;2.53;1.70;;;20.90;99.90;;;;;;5029486;28;20425;-37
2022/07/02 06:59:38;;;;;;;3.23;1.93;;;21.00;99.90;;;;;;5025310;28;20669;-37
2022/07/02 07:02:05;;;;;;;2.93;1.70;;;21.20;99.90;;;;;;5031366;28;20234;-37
2022/07/02 07:04:33;;;;;;;2.23;1.80;;;21.30;99.90;;;;;;5028441;28;20195;-37
2022/07/02 07:07:03;;;;;;;1.43;1.33;;;21.40;99.90;;;;;;5030274;28;20432;-37
2022/07/02 07:09:29;;;;;;;3.47;1.70;;;21.40;98.90;;;;;;5023521;28;20511;-37
2022/07/02 07:11:55;;;;;;;3.43;1.67;;;21.50;98.50;;;;;;5031261;28;20430;-37
2022/07/02 07:14:22;;;;;;;2.40;1.47;;;21.50;98.00;;;;;;5023836;28;20472;-37
2022/07/02 07:16:47;;;;;;;3.13;1.40;;;21.50;97.60;;;;;;5030901;28;20444;-37
2022/07/02 07:19:13;;;;;;;2.67;1.37;;;21.60;98.00;;;;;;5028830;28;20433;-37
2022/07/02 07:21:40;;;;;;;2.83;1.57;;;21.60;98.20;;;;;;5032035;28;20186;-38
2022/07/02 07:24:07;;;;;;;1.93;1.30;;;21.60;97.70;;;;;;5031788;28;20656;-37
2022/07/02 07:26:34;;;;;;;2.50;1.37;;;21.60;97.60;;;;;;5028744;28;20478;-38
2022/07/02 07:29:01;;;;;;;4.20;1.70;;;21.70;97.30;;;;;;5030033;28;20941;-37
2022/07/02 07:31:27;;;;;;;1.80;1.30;;;21.70;97.30;;;;;;5030495;28;20480;-37
2022/07/02 07:33:55;;;;;;;4.50;1.23;;;21.80;97.50;;;;;;5030453;28;20569;-37
2022/07/02 07:36:23;;;;;;;4.20;1.63;;;21.90;97.60;;;;;;5025351;28;20409;-38
2022/07/02 07:38:49;;;;;;;2.30;0.90;;;22.00;97.00;;;;;;5023987;28;20425;-38
2022/07/02 07:41:16;;;;;;;1.33;0.80;;;22.10;96.60;;;;;;5028862;28;20470;-37
2022/07/02 07:43:42;;;;;;;2.40;1.40;;;22.10;95.50;;;;;;5025261;28;20749;-38
2022/07/02 07:46:07;;;;;;;2.90;1.07;;;22.20;96.00;;;;;;5031530;28;20555;-37
2022/07/02 07:48:33;;;;;;;1.27;1.00;;;22.30;95.20;;;;;;5030673;28;20272;-37
2022/07/02 07:50:59;;;;;;;4.10;1.20;;;22.20;94.80;;;;;;5030035;28;20441;-37
2022/07/02 07:53:25;;;;;;;4.27;1.60;;;22.10;94.20;;;;;;5031390;28;20627;-38
2022/07/02 07:55:51;;;;;;;2.53;1.10;;;22.10;94.60;;;;;;5031255;28;20779;-38
2022/07/02 07:58:17;;;;;;;3.67;1.03;;;22.00;94.60;;;;;;5030121;28;20464;-37
2022/07/02 08:00:44;;;;;;;2.10;1.10;;;22.00;94.40;;;;;;5031119;28;20433;-37
2022/07/02 08:03:10;;;;;;;23.67;3.77;;;22.00;95.00;;;;;;5031207;28;20424;-38
2022/07/02 08:05:36;;;;;;;2.60;1.10;;;21.90;95.10;;;;;;5031389;28;21059;-38
2022/07/02 08:08:01;;;;;;;9.17;1.63;;;21.90;95.20;;;;;;5030266;28;20193;-38
2022/07/02 08:10:27;;;;;;;1.83;0.80;;;22.00;95.10;;;;;;5031048;28;20425;-38
2022/07/02 08:12:53;;;;;;;2.30;1.10;;;21.90;94.90;;;;;;5031025;28;20214;-38
2022/07/02 08:15:19;;;;;;;1.60;1.20;;;21.80;95.10;;;;;;5029780;28;20522;-37
2022/07/02 08:17:45;;;;;;;1.67;1.33;;;21.80;94.70;;;;;;5029494;28;20186;-37
2022/07/02 08:20:11;;;;;;;1.97;0.90;;;21.70;94.70;;;;;;5031393;28;20195;-38
2022/07/02 08:22:37;;;;;;;4.03;1.03;;;21.70;94.60;;;;;;5030843;28;20193;-39
2022/07/02 08:25:06;;;;;;;9.00;1.73;;;21.60;94.20;;;;;;5029712;28;20903;-38
2022/07/02 08:27:32;;;;;;;1.00;0.63;;;21.60;94.00;;;;;;5023107;28;20914;-38
2022/07/02 08:29:58;;;;;;;1.20;1.03;;;21.60;92.80;;;;;;5030543;28;20433;-37
2022/07/02 08:32:25;;;;;;;1.10;0.97;;;21.60;93.00;;;;;;5030889;28;20468;-38
2022/07/02 08:34:53;;;;;;;1.00;0.80;;;21.60;92.80;;;;;;5029440;28;20422;-37
2022/07/02 08:37:21;;;;;;;1.93;1.30;;;21.60;92.80;;;;;;5029800;28;20908;-37
2022/07/02 08:39:47;;;;;;;2.17;1.10;;;21.60;92.50;;;;;;5024656;28;20484;-37
2022/07/02 08:42:29;;;;;;;2.93;1.43;;;21.70;92.30;;;;;;5028558;28;20429;-38
2022/07/02 08:45:00;;;;;;;4.67;1.30;;;21.80;92.90;;;;;;5030360;28;20662;-38
2022/07/02 08:47:27;;;;;;;2.63;1.20;;;21.80;92.40;;;;;;5028731;28;20516;-37
2022/07/02 08:49:55;;;;;;;2.23;0.97;;;21.90;92.40;;;;;;5030232;28;20950;-37
2022/07/02 08:52:23;;;;;;;5.53;0.80;;;22.00;92.90;;;;;;5030341;28;20508;-38
2022/07/02 08:54:50;;;;;;;1.10;0.70;;;22.20;91.70;;;;;;5026832;28;21180;-37
2022/07/02 08:57:48;;;;;;;1.57;1.00;;;22.30;90.90;;;;;;5029341;28;20428;-37
2022/07/02 09:00:15;;;;;;;0.80;0.60;;;22.40;90.70;;;;;;5030015;28;20440;-37
2022/07/02 09:02:43;;;;;;;3.60;0.70;;;22.50;90.90;;;;;;5030282;28;20432;-37
2022/07/02 09:05:11;;;;;;;1.53;1.00;;;22.50;90.70;;;;;;5030224;28;20498;-38
2022/07/02 09:07:39;;;;;;;2.70;1.00;;;22.50;91.10;;;;;;5029597;28;20437;-38
2022/07/02 09:10:06;;;;;;;1.10;0.73;;;22.50;90.70;;;;;;5030074;28;20420;-38
2022/07/02 09:12:32;;;;;;;2.70;0.70;;;22.50;90.20;;;;;;5029979;28;20518;-38
2022/07/02 09:14:58;;;;;;;0.97;0.77;;;22.50;90.10;;;;;;5029907;28;20425;-37
2022/07/02 09:17:24;;;;;;;0.67;0.60;;;22.60;90.40;;;;;;5029427;28;20452;-37
2022/07/02 09:19:50;;;;;;;2.17;0.83;;;22.60;90.80;;;;;;5029400;28;20468;-37
2022/07/02 09:22:16;;;;;;;3.03;0.70;;;22.50;90.40;;;;;;5031876;28;20189;-37
2022/07/02 09:24:43;;;;;;;1.20;0.93;;;22.50;90.70;;;;;;5029075;28;20772;-38
2022/07/02 09:27:14;;;;;;;1.23;0.60;;;22.60;90.90;;;;;;5028978;28;20190;-37
2022/07/02 09:29:52;;;;;;;2.70;0.90;;;22.90;89.40;;;;;;5029599;28;20425;-38
2022/07/02 09:32:19;;;;;;;1.20;0.60;;;23.10;88.70;;;;;;5029834;28;20452;-38
2022/07/02 09:34:53;;;;;;;1.73;1.10;;;23.30;89.40;;;;;;5028595;28;20964;-37
2022/07/02 09:37:24;;;;;;;2.97;0.90;;;23.40;87.70;;;;;;5029318;28;20424;-37
2022/07/02 09:39:52;;;;;;;2.20;0.90;;;23.30;85.00;;;;;;5029487;28;20413;-37
2022/07/02 09:42:25;;;;;;;2.27;0.97;;;23.30;85.20;;;;;;5028560;28;20409;-38
2022/07/02 09:44:52;;;;;;;2.60;0.80;;;23.30;87.80;;;;;;5025916;28;20425;-38
2022/07/02 09:47:38;;;;;;;1.80;0.70;;;23.40;86.00;;;;;;5025864;28;20425;-38
2022/07/02 09:50:07;;;;;;;1.83;0.90;;;23.40;88.20;;;;;;5023747;28;20417;-38
2022/07/02 09:52:33;;;;;;;1.50;0.77;;;23.40;85.90;;;;;;5033642;28;20456;-38
2022/07/02 09:54:59;;;;;;;4.00;0.87;;;23.50;84.80;;;;;;5033400;28;20827;-38
2022/07/02 09:57:26;;;;;;;1.13;0.60;;;23.70;84.50;;;;;;5032800;28;20475;-38
2022/07/02 09:59:52;;;;;;;2.13;0.87;;;23.70;81.00;;;;;;5025848;28;20478;-38
2022/07/02 10:02:25;;;;;;;0.83;0.50;;;23.80;83.40;;;;;;5033290;28;21016;-38
2022/07/02 10:04:55;;;;;;;5.13;1.17;;;24.00;83.50;;;;;;5034565;28;20175;-37
2022/07/02 10:07:56;;;;;;;1.70;0.93;;;24.10;81.60;;;;;;5066039;28;20563;-35
2022/07/02 10:10:50;;;;;;;1.67;0.60;;;24.00;79.20;;;;;;5066726;28;20416;-35
2022/07/02 10:13:16;;;;;;;0.83;0.60;;;24.00;80.10;;;;;;5066054;28;20898;-35
2022/07/02 10:15:59;;;;;;;2.60;0.57;;;24.10;78.90;;;;;;5067196;28;20408;-35
2022/07/02 10:18:24;;;;;;;1.63;0.80;;;23.90;79.60;;;;;;5065493;28;20906;-35
2022/07/02 10:20:55;;;;;;;1.03;0.80;;;23.70;79.70;;;;;;5066301;28;20432;-35
2022/07/02 10:23:21;;;;;;;2.43;0.70;;;23.60;81.40;;;;;;5066629;28;20263;-35
2022/07/02 10:25:48;;;;;;;1.17;0.50;;;23.60;82.50;;;;;;5066783;28;20509;-36
2022/07/02 10:28:14;;;;;;;0.90;0.63;;;23.60;81.40;;;;;;5065451;28;20439;-35
2022/07/02 10:30:40;;;;;;;2.10;0.80;;;23.80;84.30;;;;;;5059709;28;20415;-35
2022/07/02 10:33:21;;;;;;;2.13;0.83;;;23.80;81.70;;;;;;5066562;28;20256;-35
2022/07/02 10:35:49;;;;;;;1.77;0.83;;;23.90;80.90;;;;;;5056679;28;21135;-35
2022/07/02 10:38:15;;;;;;;3.97;1.07;;;24.00;81.30;;;;;;5065521;28;20481;-35
2022/07/02 10:40:50;;;;;;;1.60;0.80;;;24.00;80.20;;;;;;5065262;28;20423;-35
2022/07/02 10:43:19;;;;;;;1.60;0.80;;;24.10;83.80;;;;;;5066501;28;20498;-36
2022/07/02 10:45:45;;;;;;;2.27;0.90;;;24.30;83.60;;;;;;5066452;28;20510;-36
2022/07/02 10:48:13;;;;;;;0.73;0.73;;;24.40;79.80;;;;;;5065854;28;20760;-35
2022/07/02 10:50:42;;;;;;;0.90;0.70;;;24.50;79.00;;;;;;5049607;28;20416;-35
2022/07/02 10:53:09;;;;;;;1.47;0.63;;;24.70;80.50;;;;;;5049803;28;20434;-35
2022/07/02 10:55:36;;;;;;;1.80;0.70;;;24.70;82.10;;;;;;5064694;28;20442;-36
2022/07/02 10:58:05;;;;;;;1.53;0.80;;;24.70;79.30;;;;;;5065523;28;20424;-35
2022/07/02 11:00:35;;;;;;;0.80;0.80;;;24.70;79.80;;;;;;5066260;28;20435;-36
2022/07/02 11:03:18;;;;;;;2.03;0.90;;;24.80;79.80;;;;;;5066073;28;20420;-36
2022/07/02 11:06:14;;;;;;;1.50;0.60;;;24.90;79.80;;;;;;5062448;28;20577;-35
2022/07/02 11:08:48;;;;;;;3.23;0.73;;;24.90;80.50;;;;;;5060884;28;20460;-35
2022/07/02 11:11:20;;;;;;;1.77;0.80;;;24.80;76.20;;;;;;5064802;28;20426;-35
2022/07/02 11:13:47;;;;;;;1.10;0.80;;;24.70;77.90;;;;;;5058964;28;20458;-35
2022/07/02 11:16:23;;;;;;;5.40;1.20;;;24.60;78.70;;;;;;5064165;28;20424;-36
2022/07/02 11:18:50;;;;;;;1.90;1.10;;;24.60;77.40;;;;;;5052351;28;20427;-35
2022/07/02 11:21:17;;;;;;;1.90;1.00;;;24.60;79.00;;;;;;5042358;28;20438;-35
2022/07/02 11:23:44;;;;;;;1.47;0.90;;;24.60;76.00;;;;;;5052659;28;20883;-35
2022/07/02 11:26:15;;;;;;;1.73;0.90;;;24.50;77.80;;;;;;5052220;28;20464;-35
2022/07/02 11:28:41;;;;;;;1.47;0.80;;;24.40;77.00;;;;;;5051956;28;20470;-35
2022/07/02 11:31:08;;;;;;;0.70;0.70;;;24.40;76.60;;;;;;5052179;28;20459;-35
2022/07/02 11:33:33;;;;;;;4.60;0.90;;;24.40;78.30;;;;;;5050903;28;20431;-36
2022/07/02 11:36:00;;;;;;;1.30;0.83;;;24.50;78.70;;;;;;5049651;28;20908;-35
2022/07/02 11:38:26;;;;;;;1.27;0.80;;;24.60;79.10;;;;;;5050231;28;20320;-36
2022/07/02 11:40:52;;;;;;;2.53;0.80;;;24.70;77.20;;;;;;5049465;28;20518;-35
2022/07/02 11:43:19;;;;;;;1.10;0.60;;;24.80;79.40;;;;;;5048939;28;20186;-35
2022/07/02 11:45:46;;;;;;;1.17;0.67;;;24.90;76.60;;;;;;5048253;28;20437;-36
2022/07/02 11:48:22;;;;;;;3.60;0.83;;;24.80;74.00;;;;;;5043950;28;20424;-35
2022/07/02 11:50:59;;;;;;;2.17;0.90;;;24.80;73.40;;;;;;5051240;28;20428;-35
2022/07/02 11:53:25;;;;;;;0.70;0.60;;;24.70;77.10;;;;;;5045696;28;20432;-35
2022/07/02 11:55:52;;;;;;;6.37;1.00;;;24.80;77.10;;;;;;5050498;28;20428;-35
2022/07/02 11:58:18;;;;;;;0.83;0.83;;;24.90;77.30;;;;;;5050037;28;20459;-36
2022/07/02 12:00:44;;;;;;;1.33;0.80;;;24.70;74.70;;;;;;5050749;28;20997;-35
2022/07/02 12:03:13;;;;;;;1.60;0.80;;;24.60;76.00;;;;;;5051838;28;20474;-35
2022/07/02 12:05:52;;;;;;;1.10;0.70;;;24.50;73.20;;;;;;5051390;28;20452;-36
2022/07/02 12:08:18;;;;;;;1.10;0.73;;;24.50;73.30;;;;;;5051180;28;20942;-35
2022/07/02 12:10:44;;;;;;;2.17;0.90;;;24.50;76.70;;;;;;5051701;28;20424;-35
2022/07/02 12:13:11;;;;;;;1.80;0.80;;;24.40;75.00;;;;;;5051616;28;20838;-35
2022/07/02 12:15:44;;;;;;;0.93;0.77;;;24.20;76.60;;;;;;5050210;28;20448;-35
2022/07/02 12:18:20;;;;;;;1.13;0.70;;;24.10;77.40;;;;;;5050702;28;20508;-35
2022/07/02 12:20:47;;;;;;;2.67;0.90;;;24.00;77.20;;;;;;5051367;28;20451;-35
2022/07/02 12:23:13;;;;;;;1.40;0.73;;;24.10;78.00;;;;;;5052392;28;20536;-35
2022/07/02 12:25:46;;;;;;;2.17;0.80;;;24.20;77.10;;;;;;5051345;28;20482;-35
2022/07/02 12:30:59;;;;;;;0.80;0.70;;;24.60;75.50;;;;;;5050531;28;20519;-36
2022/07/02 12:33:35;;;;;;;1.43;1.00;;;24.70;77.40;;;;;;5050033;28;20986;-36
2022/07/02 12:36:04;;;;;;;1.43;0.80;;;24.80;80.30;;;;;;5051357;28;20288;-35
2022/07/02 12:38:42;;;;;;;2.30;1.13;;;24.90;80.20;;;;;;5050690;28;20432;-36
2022/07/02 12:41:07;;;;;;;1.27;0.90;;;25.00;78.80;;;;;;5050939;28;21346;-35
2022/07/02 12:43:33;;;;;;;2.57;0.93;;;25.10;78.60;;;;;;5051037;28;20432;-35
2022/07/02 12:46:06;;;;;;;1.07;0.77;;;25.20;77.90;;;;;;5051025;28;20212;-35
2022/07/02 12:48:42;;;;;;;1.20;0.93;;;25.20;75.00;;;;;;5048941;28;20273;-35
2022/07/02 12:51:12;;;;;;;1.10;0.70;;;25.20;76.00;;;;;;5050960;28;20420;-35
2022/07/02 12:53:38;;;;;;;1.50;0.90;;;25.10;77.40;;;;;;5050510;28;20432;-35
2022/07/02 12:56:06;;;;;;;1.47;0.70;;;25.10;77.00;;;;;;5050929;28;20416;-35
2022/07/02 12:58:32;;;;;;;2.43;0.80;;;25.20;76.50;;;;;;5050200;28;20482;-35